Goose Creek, South Carolina
Current Conditions -  °F | °C
As of 1:56 PM on Friday 28 Nov 2014 (Local Time) from KCHS Reporting Station
Clear Clear  
Wind Chill: 50°   Ceiling: Unl
Heat Index: 50°   Visibility: 10mi
Dew Point: 21°   Wind: 8mph
Humidity: 32%   Direction: 340°NNW
Pressure: 30.32"   Gusts: NA
Location:  33°N, 80.04°W
Report Text: KCHS 281856Z 34007KT 320V020 10SM CLR 10/M06 A3032 RMK AO2 SLP266 T01001061 $
Loading
Personal Weather Stations






























Interactive Weather Map New forecast layout! Learn more

10-Day Weather Forecast

Advertisements
Track Severe Weather on mobile